Time;durP1;ratioP1;P1;durP2;ratioP2;P2;SDS_P1;SDS_P2;PMS_P1;PMS_P2;Temp;Humidity;BMP_temperature;BMP_pressure;BME280_temperature;BME280_humidity;BME280_pressure;Samples;Min_cycle;Max_cycle;Signal;HPM_P1;HPM_P2
2021/10/03 00:00:30;;;;;;;4.63;3.33;;;16.60;94.70;;;;;;5094283;28;20198;-83
2021/10/03 00:02:57;;;;;;;7.38;3.60;;;16.60;94.70;;;;;;5094502;28;20031;-83
2021/10/03 00:05:27;;;;;;;4.82;3.35;;;16.60;94.90;;;;;;5094396;28;20461;-83
2021/10/03 00:07:59;;;;;;;7.95;3.67;;;16.60;94.60;;;;;;5094632;28;20046;-83
2021/10/03 00:10:28;;;;;;;4.63;3.15;;;16.60;94.60;;;;;;5095142;28;20477;-83
2021/10/03 00:12:55;;;;;;;6.63;3.53;;;16.70;94.50;;;;;;5095445;28;20035;-83
2021/10/03 00:15:21;;;;;;;4.82;3.47;;;16.70;94.60;;;;;;5094272;28;20028;-83
2021/10/03 00:17:48;;;;;;;4.55;3.05;;;16.60;94.60;;;;;;5094394;28;20373;-82
2021/10/03 00:20:15;;;;;;;5.43;2.97;;;16.60;94.80;;;;;;5094946;28;20032;-83
2021/10/03 00:22:41;;;;;;;4.72;3.17;;;16.60;94.70;;;;;;5094468;28;20020;-83
2021/10/03 00:25:09;;;;;;;6.28;3.75;;;16.60;94.60;;;;;;5094601;28;20032;-83
2021/10/03 00:27:35;;;;;;;8.38;3.45;;;16.60;94.70;;;;;;5093771;28;20051;-83
2021/10/03 00:30:02;;;;;;;7.03;3.72;;;16.60;94.80;;;;;;5094477;28;20377;-83
2021/10/03 00:32:28;;;;;;;5.38;3.55;;;16.60;94.70;;;;;;5093872;28;20055;-83
2021/10/03 00:34:54;;;;;;;6.70;3.70;;;16.60;94.90;;;;;;5094463;28;20465;-83
2021/10/03 00:37:20;;;;;;;6.72;3.72;;;16.70;95.00;;;;;;5094466;28;20032;-81
2021/10/03 00:39:45;;;;;;;5.07;3.63;;;16.70;95.00;;;;;;5094029;28;20028;-83
2021/10/03 00:42:11;;;;;;;5.68;3.72;;;16.70;95.00;;;;;;5094907;28;20024;-83
2021/10/03 00:44:37;;;;;;;5.30;3.80;;;16.70;94.80;;;;;;5093190;28;20059;-83
2021/10/03 00:47:03;;;;;;;5.20;3.55;;;16.70;94.90;;;;;;5094783;28;20403;-82
2021/10/03 00:49:33;;;;;;;4.78;3.45;;;16.70;94.90;;;;;;5093456;28;20024;-83
2021/10/03 00:52:00;;;;;;;5.72;3.60;;;16.60;94.90;;;;;;5093812;28;20028;-83
2021/10/03 00:54:26;;;;;;;8.48;3.92;;;16.70;94.80;;;;;;5093415;28;20047;-83
2021/10/03 00:56:52;;;;;;;6.82;3.97;;;16.70;94.80;;;;;;5095085;28;20127;-83
2021/10/03 00:59:17;;;;;;;5.47;3.42;;;16.80;94.70;;;;;;5093264;28;20035;-83
2021/10/03 01:01:43;;;;;;;5.72;3.53;;;16.70;94.70;;;;;;5093808;28;20031;-83
2021/10/03 01:04:09;;;;;;;6.20;3.97;;;16.80;94.80;;;;;;5095224;28;20161;-82
2021/10/03 01:06:35;;;;;;;6.93;3.92;;;16.70;94.80;;;;;;5094210;28;20055;-83
2021/10/03 01:09:03;;;;;;;7.90;3.50;;;16.70;95.10;;;;;;5093722;28;20047;-82
2021/10/03 01:11:28;;;;;;;6.70;4.10;;;16.70;95.30;;;;;;5092997;28;20032;-83
2021/10/03 01:13:54;;;;;;;6.72;3.72;;;16.70;95.30;;;;;;5093667;28;20395;-83
2021/10/03 01:16:20;;;;;;;6.38;3.95;;;16.60;95.30;;;;;;5093016;28;20028;-83
2021/10/03 01:18:46;;;;;;;6.00;3.53;;;16.60;95.20;;;;;;5093718;28;20035;-83
2021/10/03 01:21:12;;;;;;;7.10;3.65;;;16.60;95.40;;;;;;5093760;28;20496;-83
2021/10/03 01:23:38;;;;;;;6.05;3.70;;;16.50;95.50;;;;;;5093924;28;20024;-83
2021/10/03 01:26:04;;;;;;;7.40;3.95;;;16.60;95.60;;;;;;5093828;28;20051;-82
2021/10/03 01:28:30;;;;;;;8.43;3.85;;;16.50;95.70;;;;;;5092810;28;20492;-83
2021/10/03 01:30:56;;;;;;;5.82;3.70;;;16.50;95.80;;;;;;5093830;28;20457;-83
2021/10/03 01:33:24;;;;;;;5.20;3.50;;;16.50;95.70;;;;;;5093683;28;20353;-83
2021/10/03 01:35:50;;;;;;;4.82;3.40;;;16.60;95.70;;;;;;5093583;28;20028;-83
2021/10/03 01:38:18;;;;;;;5.40;3.47;;;16.60;95.60;;;;;;5092757;28;20021;-87
2021/10/03 01:40:45;;;;;;;7.35;3.95;;;16.60;95.70;;;;;;5093087;28;20066;-83
2021/10/03 01:43:12;;;;;;;5.82;3.28;;;16.60;95.90;;;;;;5093322;28;20057;-83
2021/10/03 01:45:38;;;;;;;6.70;3.13;;;16.50;96.10;;;;;;5092967;28;20024;-83
2021/10/03 01:48:18;;;;;;;6.28;3.47;;;16.50;95.90;;;;;;5093434;28;20096;-82
2021/10/03 01:50:54;;;;;;;5.57;3.53;;;16.50;95.80;;;;;;5093500;28;20038;-83
2021/10/03 01:53:22;;;;;;;5.88;3.97;;;16.60;95.90;;;;;;5093975;28;20027;-83
2021/10/03 01:55:49;;;;;;;5.90;3.28;;;16.50;95.90;;;;;;5092822;28;20024;-83
2021/10/03 01:58:18;;;;;;;5.88;3.97;;;16.60;96.20;;;;;;5095963;28;20039;-82
2021/10/03 02:00:47;;;;;;;5.03;3.72;;;16.60;96.20;;;;;;5097018;28;20024;-82
2021/10/03 02:03:13;;;;;;;6.53;3.80;;;16.60;96.20;;;;;;5097167;28;20046;-83
2021/10/03 02:05:42;;;;;;;6.20;3.92;;;16.60;96.30;;;;;;5096707;28;20024;-83
2021/10/03 02:08:10;;;;;;;6.72;3.88;;;16.60;96.10;;;;;;5098003;28;20024;-82
2021/10/03 02:10:37;;;;;;;7.95;3.78;;;16.50;96.30;;;;;;5096750;28;20028;-83
2021/10/03 02:13:04;;;;;;;7.28;3.92;;;16.50;96.30;;;;;;5096917;28;20522;-83
2021/10/03 02:15:31;;;;;;;6.20;3.55;;;16.50;96.40;;;;;;5096436;28;20472;-83
2021/10/03 02:17:56;;;;;;;6.05;3.63;;;16.50;96.40;;;;;;5096940;28;20035;-82
2021/10/03 02:20:23;;;;;;;5.82;3.92;;;16.50;96.40;;;;;;5097542;28;20028;-83
2021/10/03 02:22:50;;;;;;;6.45;3.75;;;16.50;96.50;;;;;;5096913;28;20028;-83
2021/10/03 02:25:17;;;;;;;6.45;3.80;;;16.60;96.50;;;;;;5096514;28;20035;-83
2021/10/03 02:27:42;;;;;;;5.80;3.70;;;16.50;96.40;;;;;;5097314;28;20024;-83
2021/10/03 02:30:08;;;;;;;5.35;3.50;;;16.50;96.40;;;;;;5097673;28;20034;-83
2021/10/03 02:32:35;;;;;;;6.28;3.72;;;16.60;96.40;;;;;;5095698;28;20032;-83
2021/10/03 02:35:01;;;;;;;5.38;3.50;;;16.50;96.40;;;;;;5096457;28;20096;-83
2021/10/03 02:37:27;;;;;;;8.10;4.18;;;16.50;96.50;;;;;;5096026;28;20028;-83
2021/10/03 02:39:53;;;;;;;7.60;3.83;;;16.40;96.50;;;;;;5097411;28;20028;-83
2021/10/03 02:42:20;;;;;;;6.00;4.07;;;16.40;96.60;;;;;;5096310;28;20028;-83
2021/10/03 02:44:46;;;;;;;6.43;4.03;;;16.40;96.70;;;;;;5096442;28;20066;-83
2021/10/03 02:47:13;;;;;;;6.20;4.20;;;16.40;96.70;;;;;;5096276;28;20027;-83
2021/10/03 02:49:44;;;;;;;6.90;4.07;;;16.50;96.90;;;;;;5095687;28;20035;-83
2021/10/03 02:52:11;;;;;;;5.65;3.70;;;16.40;96.80;;;;;;5096524;28;20031;-83
2021/10/03 02:54:38;;;;;;;6.43;4.13;;;16.40;96.80;;;;;;5096863;28;20028;-82
2021/10/03 02:57:05;;;;;;;8.23;3.85;;;16.40;96.90;;;;;;5095864;28;20063;-82
2021/10/03 02:59:31;;;;;;;6.43;3.78;;;16.40;96.80;;;;;;5095510;28;20165;-83
2021/10/03 03:01:57;;;;;;;7.38;3.80;;;16.40;96.80;;;;;;5096018;28;20058;-82
2021/10/03 03:04:22;;;;;;;5.13;3.35;;;16.30;97.00;;;;;;5096131;28;20093;-84
2021/10/03 03:06:48;;;;;;;6.53;3.80;;;16.30;97.10;;;;;;5095802;28;20031;-83
2021/10/03 03:09:14;;;;;;;6.85;3.83;;;16.40;96.80;;;;;;5095477;28;20043;-83
2021/10/03 03:11:40;;;;;;;6.63;3.63;;;16.40;96.90;;;;;;5095458;28;20051;-83
2021/10/03 03:14:05;;;;;;;7.82;4.05;;;16.40;97.00;;;;;;5095613;28;20024;-83
2021/10/03 03:16:31;;;;;;;7.68;3.92;;;16.40;96.80;;;;;;5095100;28;20077;-83
2021/10/03 03:18:56;;;;;;;5.50;3.70;;;16.40;96.60;;;;;;5096531;28;20024;-83
2021/10/03 03:21:22;;;;;;;5.47;4.10;;;16.40;96.90;;;;;;5094999;28;20024;-89
2021/10/03 03:23:48;;;;;;;6.28;4.10;;;16.50;96.80;;;;;;5096606;28;20039;-83
2021/10/03 03:26:14;;;;;;;5.50;3.70;;;16.50;96.70;;;;;;5095758;28;20024;-83
2021/10/03 03:28:39;;;;;;;6.75;4.00;;;16.50;96.60;;;;;;5096178;28;20464;-83
2021/10/03 03:31:05;;;;;;;4.97;3.83;;;16.40;96.60;;;;;;5095353;28;20028;-83
2021/10/03 03:33:30;;;;;;;6.72;4.07;;;16.40;96.60;;;;;;5094770;28;20456;-83
2021/10/03 03:35:56;;;;;;;6.20;3.85;;;16.50;96.80;;;;;;5095223;28;20024;-83
2021/10/03 03:38:22;;;;;;;5.85;3.78;;;16.50;96.90;;;;;;5094933;28;20028;-82
2021/10/03 03:40:48;;;;;;;6.75;4.07;;;16.50;96.80;;;;;;5095059;28;20098;-82
2021/10/03 03:43:14;;;;;;;5.75;3.70;;;16.50;96.80;;;;;;5095213;28;20028;-82
2021/10/03 03:45:39;;;;;;;7.30;3.70;;;16.50;96.90;;;;;;5094442;28;20052;-83
2021/10/03 03:48:05;;;;;;;6.78;4.13;;;16.40;96.90;;;;;;5096372;28;20020;-83
2021/10/03 03:50:32;;;;;;;7.15;4.05;;;16.40;97.00;;;;;;5095343;28;20492;-83
2021/10/03 03:52:59;;;;;;;7.35;4.00;;;16.40;97.20;;;;;;5096123;28;20020;-83
2021/10/03 03:55:24;;;;;;;7.65;4.25;;;16.40;97.20;;;;;;5095767;28;20024;-89
2021/10/03 03:57:51;;;;;;;7.47;4.35;;;16.40;97.10;;;;;;5096358;28;20044;-83
2021/10/03 04:00:17;;;;;;;7.70;4.22;;;16.40;97.10;;;;;;5096028;28;20039;-82
2021/10/03 04:02:43;;;;;;;6.78;4.25;;;16.30;97.20;;;;;;5095715;28;20024;-83
2021/10/03 04:05:09;;;;;;;7.00;4.38;;;16.40;97.10;;;;;;5095048;28;20024;-81
2021/10/03 04:07:34;;;;;;;8.60;4.50;;;16.40;97.40;;;;;;5094258;28;20423;-83
2021/10/03 04:10:00;;;;;;;8.80;4.07;;;16.40;97.40;;;;;;5095595;28;20024;-82
2021/10/03 04:12:26;;;;;;;6.85;3.92;;;16.40;97.50;;;;;;5094978;28;20117;-84
2021/10/03 04:14:52;;;;;;;6.55;4.25;;;16.40;97.40;;;;;;5094492;28;20020;-83
2021/10/03 04:17:17;;;;;;;7.63;4.35;;;16.40;97.30;;;;;;5095495;28;20028;-83
2021/10/03 04:19:43;;;;;;;6.82;4.20;;;16.40;97.30;;;;;;5093247;28;20032;-82
2021/10/03 04:22:09;;;;;;;8.63;4.13;;;16.50;97.30;;;;;;5095569;28;20028;-83
2021/10/03 04:24:35;;;;;;;6.75;4.25;;;16.50;97.30;;;;;;5094216;28;20119;-83
2021/10/03 04:27:00;;;;;;;7.13;4.00;;;16.50;97.30;;;;;;5094690;28;20461;-83
2021/10/03 04:29:26;;;;;;;7.35;3.90;;;16.50;97.20;;;;;;5093963;28;20027;-89
2021/10/03 04:31:52;;;;;;;6.80;3.92;;;16.40;97.30;;;;;;5095227;28;20074;-83
2021/10/03 04:34:18;;;;;;;11.20;4.35;;;16.40;97.50;;;;;;5094233;28;20040;-82
2021/10/03 04:36:43;;;;;;;6.72;3.67;;;16.40;97.60;;;;;;5094796;28;20028;-81
2021/10/03 04:39:09;;;;;;;7.30;4.25;;;16.40;97.70;;;;;;5094314;28;20027;-82
2021/10/03 04:41:34;;;;;;;9.27;4.38;;;16.40;97.90;;;;;;5093802;28;20032;-82
2021/10/03 04:44:00;;;;;;;7.28;4.20;;;16.30;97.80;;;;;;5095050;28;20024;-82
2021/10/03 04:46:26;;;;;;;8.43;4.03;;;16.40;97.90;;;;;;5093994;28;20028;-82
2021/10/03 04:48:52;;;;;;;6.88;4.15;;;16.40;97.70;;;;;;5093342;28;20035;-81
2021/10/03 04:51:17;;;;;;;7.25;4.28;;;16.40;97.60;;;;;;5094084;28;20039;-83
2021/10/03 04:53:43;;;;;;;6.60;3.88;;;16.40;97.60;;;;;;5093431;28;20028;-82
2021/10/03 04:56:09;;;;;;;5.55;3.85;;;16.40;97.70;;;;;;5093781;28;20044;-83
2021/10/03 04:58:35;;;;;;;7.80;4.05;;;16.50;97.70;;;;;;5093186;28;20065;-83
2021/10/03 05:01:01;;;;;;;5.80;3.80;;;16.40;97.60;;;;;;5093785;28;20084;-83
2021/10/03 05:03:26;;;;;;;5.95;4.15;;;16.50;97.70;;;;;;5093404;28;20035;-82
2021/10/03 05:05:52;;;;;;;6.32;4.18;;;16.40;97.70;;;;;;5093352;28;20059;-83
2021/10/03 05:08:18;;;;;;;6.13;3.80;;;16.40;97.70;;;;;;5093679;28;20024;-83
2021/10/03 05:10:45;;;;;;;6.25;3.90;;;16.50;97.40;;;;;;5093306;28;20032;-83
2021/10/03 05:13:10;;;;;;;6.30;4.00;;;16.40;97.40;;;;;;5094487;28;20051;-82
2021/10/03 05:15:36;;;;;;;7.55;3.50;;;16.40;97.30;;;;;;5093129;28;20456;-83
2021/10/03 05:18:02;;;;;;;5.05;3.40;;;16.40;97.00;;;;;;5093762;28;20069;-82
2021/10/03 05:20:27;;;;;;;5.80;3.80;;;16.40;96.90;;;;;;5093614;28;20100;-82
2021/10/03 05:22:53;;;;;;;6.68;4.07;;;16.40;96.70;;;;;;5093945;28;20032;-83
2021/10/03 05:25:19;;;;;;;6.25;3.80;;;16.40;96.80;;;;;;5093700;28;20055;-83
2021/10/03 05:27:44;;;;;;;7.32;3.63;;;16.50;97.00;;;;;;5093036;28;20031;-82
2021/10/03 05:30:10;;;;;;;5.90;3.97;;;16.50;97.10;;;;;;5093432;28;20070;-82
2021/10/03 05:32:36;;;;;;;5.38;3.70;;;16.50;97.20;;;;;;5093602;28;20503;-83
2021/10/03 05:35:02;;;;;;;6.10;3.70;;;16.50;97.70;;;;;;5093577;28;20028;-83
2021/10/03 05:37:28;;;;;;;5.93;3.80;;;16.50;97.20;;;;;;5094373;28;20347;-83
2021/10/03 05:39:55;;;;;;;7.63;4.35;;;16.40;97.30;;;;;;5092771;28;20039;-83
2021/10/03 05:42:21;;;;;;;8.30;3.70;;;16.40;97.50;;;;;;5093301;28;20100;-82
2021/10/03 05:44:46;;;;;;;5.50;3.30;;;16.40;97.50;;;;;;5093208;28;20457;-83
2021/10/03 05:47:12;;;;;;;6.53;3.75;;;16.40;97.50;;;;;;5093342;28;20028;-83
2021/10/03 05:49:37;;;;;;;5.75;3.33;;;16.40;97.50;;;;;;5093665;28;20035;-82
2021/10/03 05:52:03;;;;;;;5.22;3.67;;;16.50;97.60;;;;;;5094074;28;20024;-83
2021/10/03 05:54:29;;;;;;;7.10;3.97;;;16.50;97.50;;;;;;5093119;28;20419;-83
2021/10/03 05:56:55;;;;;;;6.10;4.00;;;16.50;97.50;;;;;;5093338;28;20551;-82
2021/10/03 05:59:20;;;;;;;6.13;4.03;;;16.60;97.40;;;;;;5093158;28;20046;-82
2021/10/03 06:01:47;;;;;;;7.20;3.63;;;16.60;97.50;;;;;;5092945;28;20546;-82
2021/10/03 06:04:12;;;;;;;5.35;3.72;;;16.60;97.70;;;;;;5093135;28;20035;-82
2021/10/03 06:06:38;;;;;;;5.72;3.50;;;16.60;97.60;;;;;;5092755;28;20032;-83
2021/10/03 06:09:04;;;;;;;8.57;3.88;;;16.60;97.70;;;;;;5093081;28;20122;-81
2021/10/03 06:11:30;;;;;;;6.57;3.75;;;16.60;97.60;;;;;;5093192;28;20020;-82
2021/10/03 06:13:57;;;;;;;6.93;3.95;;;16.60;97.40;;;;;;5092647;28;20029;-81
2021/10/03 06:16:23;;;;;;;5.57;3.97;;;16.60;97.40;;;;;;5093343;28;20104;-83
2021/10/03 06:18:49;;;;;;;5.40;4.00;;;16.70;97.50;;;;;;5092314;28;20456;-83
2021/10/03 06:21:15;;;;;;;5.65;3.97;;;16.80;97.40;;;;;;5093944;28;20059;-83
2021/10/03 06:23:42;;;;;;;6.10;3.75;;;16.80;97.60;;;;;;5093563;28;20016;-83
2021/10/03 06:26:09;;;;;;;7.57;3.90;;;16.70;97.80;;;;;;5093862;28;20024;-83
2021/10/03 06:28:34;;;;;;;6.85;3.97;;;16.80;97.70;;;;;;5092262;28;20028;-83
2021/10/03 06:31:00;;;;;;;5.93;3.70;;;16.70;97.70;;;;;;5092797;28;20076;-82
2021/10/03 06:33:26;;;;;;;7.05;3.72;;;16.80;97.40;;;;;;5092843;28;20024;-81
2021/10/03 06:35:51;;;;;;;7.82;4.05;;;16.80;97.60;;;;;;5093110;28;20028;-82
2021/10/03 06:38:17;;;;;;;8.85;4.07;;;16.80;97.70;;;;;;5092789;28;20526;-83
2021/10/03 06:40:43;;;;;;;6.03;4.00;;;16.90;97.70;;;;;;5092019;28;20033;-83
2021/10/03 06:43:08;;;;;;;7.30;3.72;;;16.90;97.70;;;;;;5093611;28;20024;-83
2021/10/03 06:45:34;;;;;;;6.22;3.60;;;16.90;97.90;;;;;;5091116;28;20365;-85
2021/10/03 06:48:00;;;;;;;13.45;4.22;;;16.90;98.00;;;;;;5094824;28;20449;-82
2021/10/03 06:50:26;;;;;;;8.00;4.38;;;17.00;98.00;;;;;;5096321;28;20354;-83
2021/10/03 06:52:52;;;;;;;6.13;3.72;;;17.00;97.50;;;;;;5095919;28;20123;-83
2021/10/03 06:55:18;;;;;;;5.20;3.50;;;17.10;97.70;;;;;;5095043;28;20028;-83
2021/10/03 06:57:44;;;;;;;7.20;4.00;;;17.00;97.70;;;;;;5116529;28;20058;-83
2021/10/03 07:00:11;;;;;;;8.57;3.90;;;17.10;97.90;;;;;;5098342;28;20024;-82
2021/10/03 07:02:38;;;;;;;4.90;3.70;;;17.10;98.20;;;;;;5094969;28;20028;-85
2021/10/03 07:05:04;;;;;;;5.38;3.55;;;17.10;98.10;;;;;;5095359;28;20055;-83
2021/10/03 07:07:30;;;;;;;5.20;3.47;;;17.10;98.10;;;;;;5093770;28;20469;-84
2021/10/03 07:09:55;;;;;;;5.57;4.00;;;17.10;98.20;;;;;;5094264;28;20036;-85
2021/10/03 07:12:21;;;;;;;5.35;3.38;;;17.10;97.90;;;;;;5095652;28;20024;-82
2021/10/03 07:14:47;;;;;;;5.80;3.70;;;17.20;97.90;;;;;;5094859;28;20027;-82
2021/10/03 07:17:13;;;;;;;7.22;3.58;;;17.20;97.50;;;;;;5095206;28;20381;-83
2021/10/03 07:19:39;;;;;;;5.55;3.40;;;17.20;97.50;;;;;;5096022;28;20028;-83
2021/10/03 07:22:07;;;;;;;7.40;3.92;;;17.30;97.60;;;;;;5095442;28;20039;-82
2021/10/03 07:24:33;;;;;;;8.50;4.03;;;17.30;97.80;;;;;;5112497;28;20024;-82
2021/10/03 07:26:59;;;;;;;7.10;3.85;;;17.30;97.80;;;;;;5132862;27;20028;-83
2021/10/03 07:29:25;;;;;;;8.35;3.90;;;17.30;98.00;;;;;;5094104;28;20039;-81
2021/10/03 07:31:50;;;;;;;6.50;3.90;;;17.20;97.40;;;;;;5085873;28;20106;-83
2021/10/03 07:34:16;;;;;;;4.97;3.45;;;17.30;97.50;;;;;;5099204;28;20055;-80
2021/10/03 07:36:42;;;;;;;5.32;3.50;;;17.20;97.20;;;;;;5096466;28;20028;-82
2021/10/03 07:39:08;;;;;;;6.05;3.58;;;17.20;97.10;;;;;;5115535;28;20028;-82
2021/10/03 07:41:33;;;;;;;6.38;3.60;;;17.20;97.30;;;;;;5129014;27;20025;-83
2021/10/03 07:43:59;;;;;;;6.28;4.03;;;17.20;97.40;;;;;;5094674;28;20039;-83
2021/10/03 07:46:25;;;;;;;5.88;3.95;;;17.30;97.60;;;;;;5094778;28;20016;-82
2021/10/03 07:48:52;;;;;;;7.28;3.90;;;17.40;97.70;;;;;;5094229;28;20032;-82
2021/10/03 07:51:18;;;;;;;7.65;4.22;;;17.40;97.90;;;;;;5093982;28;20020;-83
2021/10/03 07:53:44;;;;;;;7.47;4.38;;;17.40;97.80;;;;;;5096147;28;20016;-82
2021/10/03 07:56:10;;;;;;;5.80;3.95;;;17.40;97.50;;;;;;5093210;28;20044;-82
2021/10/03 07:58:36;;;;;;;6.68;3.88;;;17.40;96.90;;;;;;5094402;28;20114;-88
2021/10/03 08:01:01;;;;;;;6.78;3.65;;;17.40;97.40;;;;;;5094969;28;20095;-83
2021/10/03 08:03:27;;;;;;;7.55;3.70;;;17.40;97.00;;;;;;5093742;28;20070;-82
2021/10/03 08:05:53;;;;;;;6.47;3.60;;;17.40;96.70;;;;;;5094840;28;20064;-82
2021/10/03 08:08:18;;;;;;;7.03;3.50;;;17.40;97.00;;;;;;5094630;28;20024;-83
2021/10/03 08:10:44;;;;;;;6.72;4.13;;;17.40;97.10;;;;;;5093497;28;20032;-82
2021/10/03 08:13:12;;;;;;;6.93;4.05;;;17.40;97.40;;;;;;5095725;28;20448;-81
2021/10/03 08:15:39;;;;;;;4.93;3.58;;;17.50;97.50;;;;;;5093746;28;20043;-84
2021/10/03 08:18:05;;;;;;;8.13;4.03;;;17.40;97.60;;;;;;5093871;28;20024;-82
2021/10/03 08:20:32;;;;;;;7.60;3.90;;;17.30;97.70;;;;;;5093242;28;20460;-82
2021/10/03 08:22:57;;;;;;;5.60;3.65;;;17.40;97.70;;;;;;5094244;28;20024;-82
2021/10/03 08:25:23;;;;;;;5.70;3.92;;;17.40;97.70;;;;;;5093770;28;20020;-82
2021/10/03 08:27:49;;;;;;;5.97;3.72;;;17.40;97.80;;;;;;5093714;28;20020;-82
2021/10/03 08:30:14;;;;;;;6.07;4.10;;;17.40;98.00;;;;;;5094029;28;20036;-82
2021/10/03 08:32:43;;;;;;;6.85;3.90;;;17.40;98.00;;;;;;5093215;28;20043;-82
2021/10/03 08:35:09;;;;;;;5.35;3.53;;;17.40;98.10;;;;;;5093828;28;20028;-82
2021/10/03 08:37:35;;;;;;;6.20;4.05;;;17.30;98.00;;;;;;5093767;28;20028;-82
2021/10/03 08:40:03;;;;;;;6.80;3.97;;;17.40;97.60;;;;;;5093104;28;20028;-82
2021/10/03 08:42:28;;;;;;;5.90;3.90;;;17.40;97.40;;;;;;5093867;28;20024;-82
2021/10/03 08:44:54;;;;;;;6.78;3.95;;;17.40;97.40;;;;;;5092878;28;20123;-82
2021/10/03 08:47:23;;;;;;;5.57;3.63;;;17.40;97.20;;;;;;5093398;28;20094;-81
2021/10/03 08:49:49;;;;;;;5.75;3.53;;;17.40;96.80;;;;;;5093752;28;20461;-80
2021/10/03 08:52:16;;;;;;;5.03;3.88;;;17.50;97.10;;;;;;5127707;27;20028;-82
2021/10/03 08:54:41;;;;;;;19.55;12.30;;;17.50;96.80;;;;;;5092536;28;20031;-88
2021/10/03 08:57:08;;;;;;;9.32;6.32;;;17.60;96.40;;;;;;5097838;28;20052;-82
2021/10/03 08:59:34;;;;;;;7.53;4.78;;;17.60;96.30;;;;;;5093227;28;20528;-83
2021/10/03 09:02:05;;;;;;;4.10;3.22;;;17.70;96.30;;;;;;5092782;28;20024;-84
2021/10/03 09:04:32;;;;;;;5.97;3.65;;;17.80;96.20;;;;;;5093299;28;20119;-83
2021/10/03 09:07:13;;;;;;;4.15;3.22;;;17.90;96.20;;;;;;5094390;28;20561;-82
2021/10/03 09:09:58;;;;;;;4.65;3.53;;;17.90;96.10;;;;;;5093631;28;20036;-84
2021/10/03 09:12:27;;;;;;;7.93;3.72;;;18.00;95.80;;;;;;5094044;28;20032;-81
2021/10/03 09:14:54;;;;;;;5.55;3.80;;;18.00;96.00;;;;;;5093008;28;20028;-82
2021/10/03 09:17:20;;;;;;;5.82;4.05;;;18.00;96.00;;;;;;5101770;28;20035;-82
2021/10/03 09:20:12;;;;;;;6.63;4.00;;;18.00;95.90;;;;;;5092987;28;20419;-82
2021/10/03 09:23:05;;;;;;;7.35;3.88;;;18.00;96.00;;;;;;5095848;28;20020;-83
2021/10/03 09:25:40;;;;;;;9.75;4.20;;;18.00;95.90;;;;;;5093423;28;20460;-83
2021/10/03 09:28:29;;;;;;;7.10;3.63;;;18.10;96.20;;;;;;5096900;28;20020;-84
2021/10/03 09:31:05;;;;;;;7.78;3.88;;;18.10;96.10;;;;;;5101297;28;20112;-83
2021/10/03 09:33:43;;;;;;;5.88;3.40;;;18.10;96.50;;;;;;5090746;28;20084;-82
2021/10/03 09:36:09;;;;;;;5.53;3.40;;;18.10;96.60;;;;;;5092566;28;20031;-83
2021/10/03 09:38:54;;;;;;;5.20;3.50;;;18.20;96.70;;;;;;5088978;28;20473;-83
2021/10/03 09:41:23;;;;;;;5.93;3.95;;;18.20;96.70;;;;;;5092900;28;20016;-83
2021/10/03 09:43:53;;;;;;;6.63;4.10;;;18.20;96.60;;;;;;5096448;28;20537;-83
2021/10/03 09:46:28;;;;;;;5.72;3.40;;;18.30;96.60;;;;;;5095567;28;20427;-83
2021/10/03 09:48:54;;;;;;;5.85;3.75;;;18.30;96.50;;;;;;5104018;28;20043;-83
2021/10/03 09:51:20;;;;;;;6.88;4.13;;;18.30;96.60;;;;;;5094541;28;20036;-83
2021/10/03 09:53:46;;;;;;;8.15;3.17;;;18.30;96.70;;;;;;5092555;28;20461;-82
2021/10/03 09:56:12;;;;;;;6.70;3.67;;;18.30;96.60;;;;;;5133413;27;20086;-83
2021/10/03 09:58:39;;;;;;;5.88;3.28;;;18.40;96.60;;;;;;5106076;28;20130;-83
2021/10/03 10:01:05;;;;;;;7.57;3.70;;;18.50;96.70;;;;;;5093044;28;20027;-84
2021/10/03 10:03:31;;;;;;;7.25;4.15;;;18.60;96.50;;;;;;5094971;28;20034;-83
2021/10/03 10:05:57;;;;;;;7.05;4.25;;;18.60;96.40;;;;;;5092829;28;20032;-83
2021/10/03 10:08:24;;;;;;;7.13;4.32;;;18.70;95.90;;;;;;5094105;28;20021;-83
2021/10/03 10:10:54;;;;;;;6.22;3.78;;;18.70;96.20;;;;;;5092693;28;20028;-83
2021/10/03 10:13:22;;;;;;;6.47;3.50;;;18.70;96.00;;;;;;5092122;28;20032;-82
2021/10/03 10:15:48;;;;;;;6.90;3.75;;;18.80;96.00;;;;;;5090344;28;20115;-83
2021/10/03 10:18:25;;;;;;;5.65;3.80;;;18.80;95.40;;;;;;5093529;28;20051;-84
2021/10/03 10:20:53;;;;;;;6.57;3.78;;;18.70;95.10;;;;;;5096987;28;20028;-83
2021/10/03 10:23:27;;;;;;;7.13;3.60;;;18.70;95.20;;;;;;5096895;28;20119;-84
2021/10/03 10:25:55;;;;;;;9.32;3.67;;;18.70;95.20;;;;;;5097748;28;20035;-84
2021/10/03 10:28:29;;;;;;;5.68;3.28;;;18.80;95.40;;;;;;5096673;28;20028;-83
2021/10/03 10:31:11;;;;;;;7.38;3.55;;;18.70;95.40;;;;;;5096606;28;20044;-83
2021/10/03 10:33:53;;;;;;;7.50;3.70;;;18.70;95.50;;;;;;5094560;28;20051;-83
2021/10/03 10:36:18;;;;;;;5.22;3.55;;;18.70;96.00;;;;;;5096219;28;20035;-83
2021/10/03 10:39:21;;;;;;;5.10;3.72;;;18.70;96.00;;;;;;5098580;28;20032;-84
2021/10/03 10:41:49;;;;;;;5.47;3.67;;;18.70;95.70;;;;;;5035601;28;20025;-84
2021/10/03 10:44:25;;;;;;;5.90;3.83;;;18.80;96.00;;;;;;5080961;28;20071;-83
2021/10/03 10:46:53;;;;;;;7.60;4.10;;;18.80;96.10;;;;;;5095361;28;20473;-82
2021/10/03 10:49:46;;;;;;;5.43;3.75;;;18.80;95.90;;;;;;5096404;28;20362;-82
2021/10/03 10:52:22;;;;;;;6.10;3.92;;;18.80;95.80;;;;;;5096248;28;20051;-82
2021/10/03 10:55:20;;;;;;;6.78;3.60;;;18.80;95.60;;;;;;5075235;28;20433;-83
2021/10/03 10:57:46;;;;;;;6.13;2.92;;;18.80;95.50;;;;;;5086859;28;20045;-82
2021/10/03 11:00:15;;;;;;;5.65;3.60;;;18.90;95.40;;;;;;5093357;28;20024;-82
2021/10/03 11:02:50;;;;;;;7.82;3.72;;;19.00;95.40;;;;;;5095724;28;20081;-82
2021/10/03 11:05:37;;;;;;;10.30;3.45;;;19.10;95.30;;;;;;5107877;28;20043;-82
2021/10/03 11:08:16;;;;;;;5.93;3.65;;;19.10;95.30;;;;;;5095069;28;20020;-83
2021/10/03 11:10:59;;;;;;;10.32;4.20;;;19.20;95.10;;;;;;5095756;28;20393;-81
2021/10/03 11:13:51;;;;;;;6.50;4.40;;;19.30;95.20;;;;;;5096886;28;20031;-82
2021/10/03 11:16:30;;;;;;;6.20;4.05;;;19.30;95.30;;;;;;5095655;28;20071;-84
2021/10/03 11:19:05;;;;;;;6.28;4.03;;;19.40;95.20;;;;;;5095945;28;20048;-83
2021/10/03 11:21:35;;;;;;;6.30;4.00;;;19.40;95.60;;;;;;5096613;28;20115;-83
2021/10/03 11:24:04;;;;;;;8.75;3.92;;;19.40;95.80;;;;;;5096047;28;20099;-82
2021/10/03 11:27:03;;;;;;;6.43;3.58;;;19.40;95.90;;;;;;5096471;28;20024;-82
2021/10/03 11:29:43;;;;;;;6.78;3.67;;;19.40;95.10;;;;;;5097856;28;20040;-82
2021/10/03 11:32:15;;;;;;;4.53;3.15;;;19.30;94.50;;;;;;5093378;28;20020;-82
2021/10/03 11:34:47;;;;;;;4.70;3.13;;;19.30;94.40;;;;;;5099396;28;20020;-83
2021/10/03 11:37:23;;;;;;;6.43;3.50;;;19.30;94.60;;;;;;5104960;28;20540;-82
2021/10/03 11:39:58;;;;;;;4.13;3.05;;;19.40;94.30;;;;;;5102496;28;20092;-82
2021/10/03 11:42:29;;;;;;;6.95;3.50;;;19.60;94.20;;;;;;5099442;28;20035;-81
2021/10/03 11:45:05;;;;;;;5.83;3.70;;;19.80;94.10;;;;;;5104924;28;20028;-82
2021/10/03 11:47:38;;;;;;;5.55;3.72;;;19.90;93.90;;;;;;5094995;28;20261;-81
2021/10/03 11:50:05;;;;;;;5.55;3.20;;;19.90;93.10;;;;;;5094671;28;20177;-82
2021/10/03 11:52:35;;;;;;;5.95;3.33;;;20.00;93.50;;;;;;5094982;28;20032;-81
2021/10/03 11:55:16;;;;;;;5.43;3.05;;;20.10;93.60;;;;;;5094456;28;20027;-82
2021/10/03 11:57:49;;;;;;;4.70;3.42;;;20.20;93.60;;;;;;5096050;28;20036;-81
2021/10/03 12:00:26;;;;;;;5.45;3.08;;;20.10;93.60;;;;;;5098194;28;20054;-82
2021/10/03 12:02:54;;;;;;;4.65;3.42;;;20.00;93.80;;;;;;5088431;28;20461;-81
2021/10/03 12:05:25;;;;;;;6.53;3.20;;;20.00;93.80;;;;;;5115939;28;20032;-81
2021/10/03 12:08:09;;;;;;;5.07;2.92;;;20.10;93.80;;;;;;5115494;28;20024;-80
2021/10/03 12:10:40;;;;;;;5.47;3.03;;;20.00;94.00;;;;;;5115459;28;20081;-78
2021/10/03 12:13:20;;;;;;;6.25;3.58;;;20.00;94.10;;;;;;5089412;28;20031;-79
2021/10/03 12:15:47;;;;;;;6.95;3.60;;;20.00;94.10;;;;;;5095550;28;20536;-78
2021/10/03 12:18:35;;;;;;;9.05;3.63;;;20.10;94.00;;;;;;5095426;28;20043;-79
2021/10/03 12:21:30;;;;;;;7.63;4.60;;;20.20;94.10;;;;;;5095119;28;20035;-82
2021/10/03 12:24:03;;;;;;;17.40;10.60;;;20.20;94.20;;;;;;5070370;28;20040;-82
2021/10/03 12:26:32;;;;;;;23.33;13.77;;;20.30;94.10;;;;;;5074156;28;20460;-83
2021/10/03 12:29:06;;;;;;;21.83;11.80;;;20.40;93.90;;;;;;5072993;28;20037;-82
2021/10/03 12:31:39;;;;;;;10.80;7.18;;;20.50;93.80;;;;;;5075110;28;20024;-81
2021/10/03 12:34:15;;;;;;;10.68;6.80;;;20.60;93.80;;;;;;5111609;28;20035;-80
2021/10/03 12:36:41;;;;;;;7.07;4.20;;;20.60;93.80;;;;;;5101331;28;20028;-81
2021/10/03 12:39:07;;;;;;;7.60;3.60;;;20.50;93.90;;;;;;5095827;28;20020;-80
2021/10/03 12:41:32;;;;;;;6.78;3.65;;;20.50;94.00;;;;;;5105906;28;20472;-80
2021/10/03 12:43:58;;;;;;;6.97;3.30;;;20.40;94.30;;;;;;5104288;28;20023;-80
2021/10/03 12:46:25;;;;;;;6.78;3.60;;;20.50;94.60;;;;;;5098697;28;20456;-80
2021/10/03 12:48:51;;;;;;;7.00;4.15;;;20.50;94.50;;;;;;5093337;28;21991;-81
2021/10/03 12:51:18;;;;;;;5.30;3.10;;;20.40;94.70;;;;;;5094050;28;20027;-80